createdAt,value
2018-09-02T00:01:03.509Z,97574
2018-09-02T00:02:19.461Z,97570
2018-09-02T00:03:35.466Z,97570
2018-09-02T00:04:51.504Z,97567
2018-09-02T00:06:07.514Z,97568
2018-09-02T00:07:23.566Z,97566
2018-09-02T00:08:39.589Z,97565
2018-09-02T00:09:55.519Z,97570
2018-09-02T00:11:11.413Z,97561
2018-09-02T00:12:27.294Z,97560
2018-09-02T00:13:43.364Z,97563
2018-09-02T00:14:59.346Z,97561
2018-09-02T00:16:15.263Z,97567
2018-09-02T00:17:31.222Z,97565
2018-09-02T00:18:47.232Z,97560
2018-09-02T00:20:03.169Z,97561
2018-09-02T00:21:19.099Z,97564
2018-09-02T00:22:34.993Z,97564
2018-09-02T00:23:50.920Z,97564
2018-09-02T00:25:06.853Z,97562
2018-09-02T00:26:22.848Z,97560
2018-09-02T00:27:39.015Z,97556
2018-09-02T00:30:35.838Z,97554
2018-09-02T00:31:51.734Z,97554
2018-09-02T00:33:07.774Z,97556
2018-09-02T00:34:23.685Z,97550
2018-09-02T00:35:39.704Z,97547
2018-09-02T00:36:55.676Z,97547
2018-09-02T00:38:11.625Z,97552
2018-09-02T00:39:27.685Z,97545
2018-09-02T00:40:43.594Z,97544
2018-09-02T00:41:59.520Z,97547
2018-09-02T00:43:15.462Z,97545
2018-09-02T00:44:31.485Z,97546
2018-09-02T00:45:47.424Z,97542
2018-09-02T00:47:03.390Z,97542
2018-09-02T00:48:19.424Z,97541
2018-09-02T00:49:35.492Z,97540
2018-09-02T00:50:51.391Z,97538
2018-09-02T00:52:07.352Z,97537
2018-09-02T00:53:23.287Z,97533
2018-09-02T00:54:39.211Z,97530
2018-09-02T00:55:55.111Z,97533
2018-09-02T00:57:11.072Z,97530
2018-09-02T00:58:27.141Z,97528
2018-09-02T00:59:43.028Z,97531
2018-09-02T01:00:59.103Z,97528
2018-09-02T01:02:15.125Z,97532
2018-09-02T01:03:31.184Z,97530
2018-09-02T01:06:27.913Z,97528
2018-09-02T01:07:43.845Z,97525
2018-09-02T01:08:59.829Z,97527
2018-09-02T01:10:15.726Z,97519
2018-09-02T01:11:31.682Z,97516
2018-09-02T01:14:28.376Z,97515
2018-09-02T01:15:44.354Z,97514
2018-09-02T01:17:00.319Z,97516
2018-09-02T01:18:16.212Z,97513
2018-09-02T01:19:32.294Z,97511
2018-09-02T01:20:48.322Z,97512
2018-09-02T01:22:04.228Z,97507
2018-09-02T01:23:20.143Z,97513
2018-09-02T01:24:36.234Z,97508
2018-09-02T01:25:52.224Z,97507
2018-09-02T01:27:08.212Z,97509
2018-09-02T01:28:24.104Z,97508
2018-09-02T01:29:40.076Z,97502
2018-09-02T01:30:56.020Z,97505
2018-09-02T01:32:11.903Z,97503
2018-09-02T01:33:27.922Z,97500
2018-09-02T01:34:43.846Z,97500
2018-09-02T01:35:59.766Z,97498
2018-09-02T01:37:15.655Z,97499
2018-09-02T01:38:31.628Z,97497
2018-09-02T01:39:47.615Z,97496
2018-09-02T01:41:03.522Z,97496
2018-09-02T01:42:19.498Z,97499
2018-09-02T01:43:35.517Z,97499
2018-09-02T01:44:51.440Z,97496
2018-09-02T01:46:07.372Z,97500
2018-09-02T01:47:23.249Z,97495
2018-09-02T01:48:39.163Z,97493
2018-09-02T01:49:55.097Z,97491
2018-09-02T01:51:11.061Z,97494
2018-09-02T01:52:27.137Z,97493
2018-09-02T01:53:43.018Z,97491
2018-09-02T01:54:58.984Z,97492
2018-09-02T01:56:14.955Z,97491
2018-09-02T01:57:30.852Z,97492
2018-09-02T01:58:46.857Z,97489
2018-09-02T02:00:02.754Z,97486
2018-09-02T02:01:18.646Z,97490
2018-09-02T02:02:34.554Z,97488
2018-09-02T02:03:50.507Z,97485
2018-09-02T02:05:06.552Z,97485
2018-09-02T02:06:22.424Z,97482
2018-09-02T02:07:38.364Z,97483
2018-09-02T02:08:54.407Z,97484
2018-09-02T02:10:10.336Z,97483
2018-09-02T02:11:26.221Z,97481
2018-09-02T02:12:42.216Z,97481
2018-09-02T02:13:58.332Z,97480
2018-09-02T02:15:14.373Z,97481
2018-09-02T02:16:30.253Z,97478
2018-09-02T02:17:46.185Z,97480
2018-09-02T02:19:02.083Z,97477
2018-09-02T02:20:18.002Z,97474
2018-09-02T02:21:33.868Z,97475
2018-09-02T02:22:49.764Z,97475
2018-09-02T02:24:05.669Z,97475
2018-09-02T02:25:21.676Z,97475
2018-09-02T02:26:37.601Z,97474
2018-09-02T02:27:53.617Z,97475
2018-09-02T02:29:09.527Z,97473
2018-09-02T02:30:25.548Z,97475
2018-09-02T02:31:41.545Z,97475
2018-09-02T02:32:57.424Z,97473
2018-09-02T02:34:13.337Z,97478
2018-09-02T02:35:29.322Z,97474
2018-09-02T02:36:45.296Z,97474
2018-09-02T02:38:01.188Z,97472
2018-09-02T02:39:17.214Z,97470
2018-09-02T02:40:33.148Z,97472
2018-09-02T02:41:49.063Z,97472
2018-09-02T02:43:05.011Z,97475
2018-09-02T02:44:21.021Z,97470
2018-09-02T02:45:36.929Z,97470
2018-09-02T02:46:52.873Z,97468
2018-09-02T02:48:08.924Z,97465
2018-09-02T02:49:24.936Z,97464
2018-09-02T02:50:40.793Z,97462
2018-09-02T02:51:56.692Z,97458
2018-09-02T02:53:12.614Z,97461
2018-09-02T02:54:28.567Z,97461
2018-09-02T02:55:44.508Z,97462
2018-09-02T02:57:00.470Z,97458
2018-09-02T02:58:16.760Z,97455
2018-09-02T02:59:32.705Z,97457
2018-09-02T03:00:48.607Z,97452
2018-09-02T03:02:04.525Z,97458
2018-09-02T03:03:20.480Z,97450
2018-09-02T03:04:36.490Z,97446
2018-09-02T03:05:52.357Z,97448
2018-09-02T03:07:08.366Z,97449
2018-09-02T03:08:24.346Z,97444
2018-09-02T03:09:40.303Z,97446
2018-09-02T03:10:56.235Z,97445
2018-09-02T03:12:12.239Z,97448
2018-09-02T03:13:28.217Z,97441
2018-09-02T03:14:44.157Z,97442
2018-09-02T03:16:00.072Z,97439
2018-09-02T03:17:15.952Z,97437
2018-09-02T03:18:31.949Z,97437
2018-09-02T03:19:47.838Z,97437
2018-09-02T03:21:03.729Z,97433
2018-09-02T03:22:19.685Z,97434
2018-09-02T03:23:35.639Z,97436
2018-09-02T03:24:51.683Z,97431
2018-09-02T03:26:07.698Z,97432
2018-09-02T03:27:23.618Z,97439
2018-09-02T03:28:39.596Z,97433
2018-09-02T03:29:55.581Z,97429
2018-09-02T03:31:11.525Z,97430
2018-09-02T03:32:27.463Z,97426
2018-09-02T03:33:43.381Z,97422
2018-09-02T03:34:59.490Z,97418
2018-09-02T03:36:15.400Z,97418
2018-09-02T03:37:31.263Z,97421
2018-09-02T03:38:47.348Z,97424
2018-09-02T03:40:03.495Z,97418
2018-09-02T03:41:19.431Z,97421
2018-09-02T03:42:35.333Z,97418
2018-09-02T03:43:51.325Z,97422
2018-09-02T03:45:07.220Z,97424
2018-09-02T03:46:23.126Z,97415
2018-09-02T03:47:39.032Z,97417
2018-09-02T03:48:55.043Z,97420
2018-09-02T03:50:11.070Z,97416
2018-09-02T03:51:26.964Z,97415
2018-09-02T03:52:42.869Z,97415
2018-09-02T03:53:58.769Z,97414
2018-09-02T03:55:14.790Z,97415
2018-09-02T03:56:30.757Z,97412
2018-09-02T03:57:46.691Z,97407
2018-09-02T03:59:02.693Z,97411
2018-09-02T04:00:18.689Z,97413
2018-09-02T04:01:34.569Z,97412
2018-09-02T04:02:50.608Z,97407
2018-09-02T04:04:06.490Z,97409
2018-09-02T04:05:22.389Z,97412
2018-09-02T04:06:38.319Z,97407
2018-09-02T04:07:54.354Z,97408
2018-09-02T04:09:10.329Z,97411
2018-09-02T04:10:26.398Z,97413
2018-09-02T04:11:42.353Z,97409
2018-09-02T04:12:58.366Z,97406
2018-09-02T04:14:14.305Z,97408
2018-09-02T04:15:30.188Z,97405
2018-09-02T04:16:46.138Z,97405
2018-09-02T04:18:02.483Z,97408
2018-09-02T04:19:18.361Z,97405
2018-09-02T04:20:34.321Z,97406
2018-09-02T04:21:50.235Z,97405
2018-09-02T04:23:06.182Z,97409
2018-09-02T04:24:22.112Z,97406
2018-09-02T04:25:38.041Z,97403
2018-09-02T04:26:54.001Z,97404
2018-09-02T04:28:10.058Z,97405
2018-09-02T04:29:26.068Z,97399
2018-09-02T04:30:41.968Z,97403
2018-09-02T04:31:57.836Z,97402
2018-09-02T04:33:13.754Z,97396
2018-09-02T04:34:29.660Z,97398
2018-09-02T04:37:26.215Z,97402
2018-09-02T04:38:42.092Z,97401
2018-09-02T04:39:57.998Z,97402
2018-09-02T04:41:13.890Z,97403
2018-09-02T04:42:29.952Z,97403
2018-09-02T04:43:45.844Z,97407
2018-09-02T04:45:01.904Z,97411
2018-09-02T04:46:17.928Z,97411
2018-09-02T04:47:33.877Z,97406
2018-09-02T04:48:49.760Z,97409
2018-09-02T04:51:46.314Z,97409
2018-09-02T04:53:02.379Z,97409
2018-09-02T04:54:18.365Z,97409
2018-09-02T04:55:34.299Z,97407
2018-09-02T04:56:50.224Z,97405
2018-09-02T04:58:06.126Z,97403
2018-09-02T04:59:22.108Z,97405
2018-09-02T05:00:38.124Z,97404
2018-09-02T05:01:54.187Z,97406
2018-09-02T05:03:10.135Z,97403
2018-09-02T05:04:26.252Z,97402
2018-09-02T05:05:42.359Z,97404
2018-09-02T05:06:58.432Z,97402
2018-09-02T05:08:14.409Z,97403
2018-09-02T05:09:30.493Z,97403
2018-09-02T05:10:46.473Z,97401
2018-09-02T05:12:02.375Z,97400
2018-09-02T05:13:18.332Z,97394
2018-09-02T05:14:34.352Z,97394
2018-09-02T05:15:50.449Z,97388
2018-09-02T05:17:06.504Z,97379
2018-09-02T05:18:22.571Z,97378
2018-09-02T05:19:38.614Z,97376
2018-09-02T05:20:54.528Z,97376
2018-09-02T05:22:10.436Z,97381
2018-09-02T05:23:26.347Z,97386
2018-09-02T05:24:42.335Z,97390
2018-09-02T05:25:58.320Z,97389
2018-09-02T05:27:14.238Z,97388
2018-09-02T05:28:30.135Z,97386
2018-09-02T05:29:46.061Z,97385
2018-09-02T05:31:01.974Z,97389
2018-09-02T05:32:17.921Z,97388
2018-09-02T05:33:33.890Z,97387
2018-09-02T05:36:31.713Z,97387
2018-09-02T05:37:47.634Z,97387
2018-09-02T05:39:03.573Z,97388
2018-09-02T05:40:19.530Z,97388
2018-09-02T05:41:35.435Z,97391
2018-09-02T05:42:51.707Z,97395
2018-09-02T05:44:07.827Z,97393
2018-09-02T05:45:23.779Z,97399
2018-09-02T05:46:39.663Z,97399
2018-09-02T05:47:55.572Z,97400
2018-09-02T05:49:12.442Z,97399
2018-09-02T05:50:28.349Z,97404
2018-09-02T05:51:44.331Z,97401
2018-09-02T05:53:00.410Z,97403
2018-09-02T05:54:16.372Z,97402
2018-09-02T05:55:32.280Z,97408
2018-09-02T05:56:48.302Z,97403
2018-09-02T05:58:04.212Z,97406
2018-09-02T05:59:20.134Z,97408
2018-09-02T06:00:36.058Z,97408
2018-09-02T06:01:52.101Z,97408
2018-09-02T06:03:08.075Z,97405
2018-09-02T06:04:24.036Z,97407
2018-09-02T06:05:40.143Z,97407
2018-09-02T06:06:57.193Z,97411
2018-09-02T06:08:13.234Z,97406
2018-09-02T06:09:29.182Z,97410
2018-09-02T06:10:45.086Z,97403
2018-09-02T06:12:01.141Z,97405
2018-09-02T06:13:17.120Z,97400
2018-09-02T06:14:33.062Z,97398
2018-09-02T06:15:48.937Z,97395
2018-09-02T06:18:45.677Z,97393
2018-09-02T06:20:01.667Z,97394
2018-09-02T06:21:17.556Z,97396
2018-09-02T06:22:33.528Z,97394
2018-09-02T06:23:49.434Z,97393
2018-09-02T06:25:05.329Z,97393
2018-09-02T06:26:21.204Z,97394
2018-09-02T06:27:37.164Z,97396
2018-09-02T06:28:53.078Z,97399
2018-09-02T06:30:09.051Z,97391
2018-09-02T06:31:24.931Z,97392
2018-09-02T06:32:41.016Z,97394
2018-09-02T06:33:56.841Z,97393
2018-09-02T06:35:12.831Z,97392
2018-09-02T06:36:28.880Z,97392
2018-09-02T06:37:44.877Z,97389
2018-09-02T06:39:00.793Z,97389
2018-09-02T06:40:16.697Z,97392
2018-09-02T06:43:13.296Z,97393
2018-09-02T06:44:29.232Z,97387
2018-09-02T06:45:45.315Z,97391
2018-09-02T06:47:01.322Z,97385
2018-09-02T06:48:17.474Z,97387
2018-09-02T06:49:33.401Z,97388
2018-09-02T06:52:31.150Z,97383
2018-09-02T06:53:47.214Z,97389
2018-09-02T06:56:44.173Z,97385
2018-09-02T06:58:00.270Z,97391
2018-09-02T06:59:16.445Z,97389
2018-09-02T07:00:32.522Z,97385
2018-09-02T07:01:48.528Z,97387
2018-09-02T07:03:04.513Z,97388
2018-09-02T07:04:20.599Z,97390
2018-09-02T07:05:36.552Z,97388
2018-09-02T07:06:52.625Z,97393
2018-09-02T07:08:08.545Z,97390
2018-09-02T07:09:24.626Z,97388
2018-09-02T07:10:40.635Z,97386
2018-09-02T07:11:56.601Z,97389
2018-09-02T07:13:12.549Z,97387
2018-09-02T07:14:28.629Z,97385
2018-09-02T07:15:44.396Z,97390
2018-09-02T07:17:00.317Z,97391
2018-09-02T07:18:16.240Z,97393
2018-09-02T07:19:32.227Z,97389
2018-09-02T07:20:48.284Z,97389
2018-09-02T07:22:04.209Z,97389
2018-09-02T07:23:21.119Z,97390
2018-09-02T07:24:37.156Z,97391
2018-09-02T07:25:54.135Z,97390
2018-09-02T07:27:10.062Z,97390
2018-09-02T07:28:26.073Z,97396
2018-09-02T07:29:42.142Z,97392
2018-09-02T07:30:58.110Z,97392
2018-09-02T07:32:14.040Z,97396
2018-09-02T07:33:29.959Z,97391
2018-09-02T07:34:45.886Z,97391
2018-09-02T07:36:01.828Z,97395
2018-09-02T07:37:17.855Z,97395
2018-09-02T07:38:33.837Z,97396
2018-09-02T07:39:49.871Z,97398
2018-09-02T07:41:05.945Z,97397
2018-09-02T07:42:21.866Z,97397
2018-09-02T07:43:37.985Z,97398
2018-09-02T07:44:53.913Z,97399
2018-09-02T07:46:09.862Z,97398
2018-09-02T07:47:25.829Z,97397
2018-09-02T07:48:41.836Z,97394
2018-09-02T07:49:58.044Z,97396
2018-09-02T07:51:14.076Z,97398
2018-09-02T07:52:30.141Z,97392
2018-09-02T07:53:46.139Z,97391
2018-09-02T07:55:02.100Z,97392
2018-09-02T07:56:18.162Z,97395
2018-09-02T07:57:34.151Z,97394
2018-09-02T07:58:50.092Z,97395
2018-09-02T08:00:06.156Z,97396
2018-09-02T08:01:22.176Z,97390
2018-09-02T08:02:38.214Z,97396
2018-09-02T08:03:55.105Z,97392
2018-09-02T08:05:11.080Z,97390
2018-09-02T08:06:27.044Z,97392
2018-09-02T08:07:42.983Z,97394
2018-09-02T08:08:59.091Z,97394
2018-09-02T08:10:15.063Z,97393
2018-09-02T08:13:11.898Z,97392
2018-09-02T08:14:27.962Z,97393
2018-09-02T08:15:44.085Z,97391
2018-09-02T08:17:00.282Z,97386
2018-09-02T08:18:16.400Z,97385
2018-09-02T08:19:32.554Z,97384
2018-09-02T08:20:48.535Z,97381
2018-09-02T08:22:05.166Z,97381
2018-09-02T08:23:21.247Z,97380
2018-09-02T08:24:38.290Z,97382
2018-09-02T08:25:54.447Z,97379
2018-09-02T08:27:10.451Z,97383
2018-09-02T08:28:26.578Z,97375
2018-09-02T08:29:42.557Z,97376
2018-09-02T08:30:58.612Z,97376
2018-09-02T08:32:14.600Z,97380
2018-09-02T08:33:30.552Z,97380
2018-09-02T08:34:46.740Z,97376
2018-09-02T08:36:02.884Z,97380
2018-09-02T08:37:18.869Z,97379
2018-09-02T08:38:34.858Z,97376
2018-09-02T08:39:50.846Z,97369
2018-09-02T08:41:06.803Z,97365
2018-09-02T08:42:22.757Z,97369
2018-09-02T08:43:38.719Z,97365
2018-09-02T08:44:54.880Z,97367
2018-09-02T08:46:10.952Z,97361
2018-09-02T08:47:26.927Z,97363
2018-09-02T08:48:42.939Z,97358
2018-09-02T08:49:58.971Z,97358
2018-09-02T08:51:15.021Z,97353
2018-09-02T08:52:30.938Z,97350
2018-09-02T08:53:46.902Z,97351
2018-09-02T08:55:02.879Z,97351
2018-09-02T08:56:18.886Z,97355
2018-09-02T08:57:34.831Z,97351
2018-09-02T08:58:51.137Z,97353
2018-09-02T09:00:07.152Z,97349
2018-09-02T09:01:23.287Z,97348
2018-09-02T09:02:39.237Z,97347
2018-09-02T09:03:55.375Z,97344
2018-09-02T09:05:11.337Z,97350
2018-09-02T09:06:27.279Z,97346
2018-09-02T09:07:43.375Z,97347
2018-09-02T09:08:59.650Z,97347
2018-09-02T09:10:15.468Z,97346
2018-09-02T09:11:31.561Z,97343
2018-09-02T09:12:47.548Z,97341
2018-09-02T09:14:03.532Z,97344
2018-09-02T09:15:19.585Z,97348
2018-09-02T09:16:35.593Z,97344
2018-09-02T09:17:51.717Z,97347
2018-09-02T09:19:07.706Z,97347
2018-09-02T09:20:23.695Z,97347
2018-09-02T09:21:39.943Z,97348
2018-09-02T09:22:55.771Z,97344
2018-09-02T09:24:11.853Z,97354
2018-09-02T09:25:27.752Z,97349
2018-09-02T09:26:43.801Z,97356
2018-09-02T09:27:59.965Z,97355
2018-09-02T09:29:16.051Z,97348
2018-09-02T09:30:32.127Z,97348
2018-09-02T09:31:48.091Z,97356
2018-09-02T09:33:04.052Z,97354
2018-09-02T09:34:20.029Z,97348
2018-09-02T09:35:36.011Z,97347
2018-09-02T09:36:52.092Z,97343
2018-09-02T09:38:08.207Z,97340
2018-09-02T09:39:24.288Z,97345
2018-09-02T09:42:20.709Z,97341
2018-09-02T09:43:36.641Z,97337
2018-09-02T09:44:52.599Z,97342
2018-09-02T09:46:08.667Z,97340
2018-09-02T09:47:24.598Z,97346
2018-09-02T09:48:40.620Z,97346
2018-09-02T09:49:56.690Z,97344
2018-09-02T09:51:12.961Z,97345
2018-09-02T09:52:29.065Z,97343
2018-09-02T09:53:45.036Z,97340
2018-09-02T09:55:01.075Z,97343
2018-09-02T09:56:17.084Z,97342
2018-09-02T09:57:33.154Z,97335
2018-09-02T09:58:49.139Z,97338
2018-09-02T10:00:05.085Z,97336
2018-09-02T10:01:21.151Z,97331
2018-09-02T10:02:37.586Z,97339
2018-09-02T10:03:54.145Z,97336
2018-09-02T10:05:10.397Z,97335
2018-09-02T10:06:26.458Z,97331
2018-09-02T10:07:42.536Z,97330
2018-09-02T10:08:58.497Z,97328
2018-09-02T10:10:14.710Z,97327
2018-09-02T10:11:30.663Z,97327
2018-09-02T10:12:46.769Z,97327
2018-09-02T10:14:02.959Z,97322
2018-09-02T10:15:18.998Z,97323
2018-09-02T10:16:35.017Z,97324
2018-09-02T10:17:50.992Z,97322
2018-09-02T10:19:07.096Z,97320
2018-09-02T10:20:23.143Z,97318
2018-09-02T10:21:39.317Z,97316
2018-09-02T10:22:55.357Z,97313
2018-09-02T10:24:11.330Z,97311
2018-09-02T10:25:27.354Z,97312
2018-09-02T10:26:43.426Z,97312
2018-09-02T10:27:59.534Z,97310
2018-09-02T10:29:15.611Z,97309
2018-09-02T10:30:31.598Z,97310
2018-09-02T10:31:47.589Z,97309
2018-09-02T10:33:03.651Z,97307
2018-09-02T10:34:19.748Z,97308
2018-09-02T10:35:35.858Z,97304
2018-09-02T10:36:51.805Z,97307
2018-09-02T10:38:07.787Z,97303
2018-09-02T10:39:23.865Z,97306
2018-09-02T10:40:39.864Z,97308
2018-09-02T10:41:55.949Z,97303
2018-09-02T10:43:12.015Z,97301
2018-09-02T10:44:28.018Z,97300
2018-09-02T10:45:44.055Z,97298
2018-09-02T10:47:00.022Z,97297
2018-09-02T10:48:16.099Z,97298
2018-09-02T10:49:32.152Z,97300
2018-09-02T10:50:48.285Z,97293
2018-09-02T10:52:04.267Z,97299
2018-09-02T10:53:20.398Z,97303
2018-09-02T10:54:36.373Z,97301
2018-09-02T10:55:52.278Z,97296
2018-09-02T10:57:08.238Z,97296
2018-09-02T10:58:24.295Z,97297
2018-09-02T10:59:40.483Z,97296
2018-09-02T11:00:56.483Z,97297
2018-09-02T11:02:12.445Z,97296
2018-09-02T11:03:28.409Z,97298
2018-09-02T11:04:45.572Z,97298
2018-09-02T11:06:01.836Z,97294
2018-09-02T11:07:17.849Z,97291
2018-09-02T11:08:34.086Z,97291
2018-09-02T11:09:50.151Z,97284
2018-09-02T11:11:06.164Z,97285
2018-09-02T11:12:22.113Z,97284
2018-09-02T11:13:38.273Z,97283
2018-09-02T11:16:35.087Z,97283
2018-09-02T11:17:51.140Z,97279
2018-09-02T11:19:07.223Z,97279
2018-09-02T11:20:23.142Z,97272
2018-09-02T11:21:39.063Z,97271
2018-09-02T11:22:55.077Z,97270
2018-09-02T11:24:11.263Z,97275
2018-09-02T11:25:27.319Z,97273
2018-09-02T11:26:43.309Z,97270
2018-09-02T11:27:59.463Z,97272
2018-09-02T11:29:15.548Z,97272
2018-09-02T11:30:31.684Z,97268
2018-09-02T11:31:47.773Z,97266
2018-09-02T11:33:05.087Z,97267
2018-09-02T11:34:21.125Z,97263
2018-09-02T11:35:37.204Z,97265
2018-09-02T11:38:33.767Z,97261
2018-09-02T11:39:49.820Z,97262
2018-09-02T11:41:05.921Z,97258
2018-09-02T11:42:21.879Z,97260
2018-09-02T11:43:37.801Z,97261
2018-09-02T11:44:53.901Z,97263
2018-09-02T11:46:09.889Z,97261
2018-09-02T11:47:25.890Z,97264
2018-09-02T11:48:41.819Z,97265
2018-09-02T11:49:58.850Z,97267
2018-09-02T11:51:14.926Z,97268
2018-09-02T11:52:30.989Z,97266
2018-09-02T11:53:46.960Z,97264
2018-09-02T11:55:03.075Z,97264
2018-09-02T11:56:19.165Z,97265
2018-09-02T11:57:35.282Z,97266
2018-09-02T11:58:51.320Z,97264
2018-09-02T12:00:07.355Z,97262
2018-09-02T12:01:23.336Z,97259
2018-09-02T12:02:39.400Z,97260
2018-09-02T12:03:55.524Z,97254
2018-09-02T12:05:11.544Z,97256
2018-09-02T12:11:30.800Z,97257
2018-09-02T12:12:46.764Z,97259
2018-09-02T12:14:02.764Z,97262
2018-09-02T12:15:18.704Z,97260
2018-09-02T12:16:34.830Z,97259
2018-09-02T12:19:31.583Z,97263
2018-09-02T12:20:47.594Z,97262
2018-09-02T12:22:03.618Z,97261
2018-09-02T12:25:00.167Z,97259
2018-09-02T12:26:16.278Z,97261
2018-09-02T12:27:32.335Z,97259
2018-09-02T12:30:28.778Z,97261
2018-09-02T12:31:44.801Z,97258
2018-09-02T12:33:00.840Z,97257
2018-09-02T12:34:16.862Z,97260
2018-09-02T12:35:32.838Z,97259
2018-09-02T12:36:48.863Z,97255
2018-09-02T12:38:04.906Z,97261
2018-09-02T12:39:20.960Z,97256
2018-09-02T12:40:36.981Z,97260
2018-09-02T12:41:52.932Z,97257
2018-09-02T12:43:09.036Z,97264
2018-09-02T12:44:25.117Z,97259
2018-09-02T12:45:41.287Z,97260
2018-09-02T12:46:58.868Z,97262
2018-09-02T12:48:15.057Z,97260
2018-09-02T12:49:31.024Z,97263
2018-09-02T12:50:47.096Z,97261
2018-09-02T12:52:03.180Z,97261
2018-09-02T12:53:19.962Z,97262
2018-09-02T12:54:35.915Z,97259
2018-09-02T12:55:52.767Z,97260
2018-09-02T12:57:08.739Z,97262
2018-09-02T12:58:24.812Z,97259
2018-09-02T12:59:41.413Z,97258
2018-09-02T13:00:57.807Z,97263
2018-09-02T13:02:14.022Z,97259
2018-09-02T13:03:30.134Z,97259
2018-09-02T13:04:46.358Z,97260
2018-09-02T13:06:02.511Z,97260
2018-09-02T13:07:18.478Z,97260
2018-09-02T13:08:34.735Z,97256
2018-09-02T13:09:50.913Z,97255
2018-09-02T13:11:09.294Z,97256
2018-09-02T13:12:26.295Z,97253
2018-09-02T13:13:42.578Z,97253
2018-09-02T13:14:58.719Z,97253
2018-09-02T13:16:14.765Z,97251
2018-09-02T13:17:30.815Z,97254
2018-09-02T13:18:46.880Z,97254
2018-09-02T13:20:02.892Z,97253
2018-09-02T13:22:59.589Z,97254
2018-09-02T13:24:15.707Z,97255
2018-09-02T13:25:31.735Z,97255
2018-09-02T13:26:47.767Z,97255
2018-09-02T13:28:03.847Z,97255
2018-09-02T13:29:19.981Z,97252
2018-09-02T13:30:36.014Z,97252
2018-09-02T13:31:52.202Z,97257
2018-09-02T13:33:08.477Z,97254
2018-09-02T13:34:24.504Z,97254
2018-09-02T13:35:40.572Z,97251
2018-09-02T13:36:56.677Z,97251
2018-09-02T13:38:12.824Z,97249
2018-09-02T13:39:28.880Z,97250
2018-09-02T13:42:25.358Z,97248
2018-09-02T13:43:41.712Z,97249
2018-09-02T13:44:57.848Z,97248
2018-09-02T13:46:13.879Z,97250
2018-09-02T13:47:29.900Z,97249
2018-09-02T13:48:45.885Z,97252
2018-09-02T13:50:02.017Z,97250
2018-09-02T13:51:18.115Z,97251
2018-09-02T13:54:15.719Z,97250
2018-09-02T13:55:31.769Z,97248
2018-09-02T13:56:47.794Z,97249
2018-09-02T13:58:03.840Z,97246
2018-09-02T13:59:19.966Z,97252
2018-09-02T14:00:36.186Z,97248
2018-09-02T14:01:52.673Z,97251
2018-09-02T14:03:08.740Z,97247
2018-09-02T14:04:24.808Z,97247
2018-09-02T14:05:40.870Z,97242
2018-09-02T14:06:56.924Z,97241
2018-09-02T14:09:53.778Z,97238
2018-09-02T14:11:09.844Z,97238
2018-09-02T14:12:25.855Z,97241
2018-09-02T14:13:41.849Z,97242
2018-09-02T14:14:57.848Z,97234
2018-09-02T14:16:13.855Z,97236
2018-09-02T14:17:29.916Z,97236
2018-09-02T14:18:46.058Z,97233
2018-09-02T14:20:02.094Z,97232
2018-09-02T14:21:18.405Z,97232
2018-09-02T14:22:34.517Z,97234
2018-09-02T14:23:50.500Z,97229
2018-09-02T14:25:06.486Z,97229
2018-09-02T14:26:22.531Z,97231
2018-09-02T14:27:38.552Z,97229
2018-09-02T14:28:54.863Z,97227
2018-09-02T14:30:10.871Z,97224
2018-09-02T14:31:26.845Z,97225
2018-09-02T14:34:24.683Z,97223
2018-09-02T14:35:40.657Z,97221
2018-09-02T14:36:56.688Z,97225
2018-09-02T14:38:12.733Z,97224
2018-09-02T14:39:28.947Z,97225
2018-09-02T14:40:44.921Z,97223
2018-09-02T14:42:01.140Z,97221
2018-09-02T14:43:17.268Z,97219
2018-09-02T14:44:33.327Z,97219
2018-09-02T14:45:49.408Z,97216
2018-09-02T14:47:05.623Z,97217
2018-09-02T14:48:21.705Z,97221
2018-09-02T14:49:37.759Z,97221
2018-09-02T14:50:54.013Z,97219
2018-09-02T14:52:09.920Z,97219
2018-09-02T14:53:25.900Z,97221
2018-09-02T14:54:41.906Z,97217
2018-09-02T14:55:58.004Z,97220
2018-09-02T14:57:14.069Z,97221
2018-09-02T14:58:30.075Z,97222
2018-09-02T14:59:46.103Z,97222
2018-09-02T15:01:02.106Z,97221
2018-09-02T15:02:18.083Z,97219
2018-09-02T15:03:34.050Z,97225
2018-09-02T15:04:50.086Z,97218
2018-09-02T15:06:06.196Z,97221
2018-09-02T15:07:22.169Z,97222
2018-09-02T15:08:38.292Z,97221
2018-09-02T15:09:54.702Z,97221
2018-09-02T15:11:10.717Z,97219
2018-09-02T15:12:26.716Z,97218
2018-09-02T15:13:42.717Z,97221
2018-09-02T15:14:58.709Z,97219
2018-09-02T15:16:14.832Z,97220
2018-09-02T15:17:30.890Z,97222
2018-09-02T15:18:46.865Z,97223
2018-09-02T15:20:02.831Z,97220
2018-09-02T15:21:18.972Z,97224
2018-09-02T15:22:34.857Z,97225
2018-09-02T15:23:50.916Z,97222
2018-09-02T15:25:06.867Z,97220
2018-09-02T15:26:22.876Z,97219
2018-09-02T15:27:38.910Z,97220
2018-09-02T15:28:55.976Z,97217
2018-09-02T15:30:12.000Z,97219
2018-09-02T15:31:27.983Z,97218
2018-09-02T15:32:43.951Z,97217
2018-09-02T15:34:00.065Z,97219
2018-09-02T15:35:16.147Z,97219
2018-09-02T15:36:32.341Z,97214
2018-09-02T15:37:48.324Z,97217
2018-09-02T15:39:04.355Z,97214
2018-09-02T15:40:20.390Z,97214
2018-09-02T15:41:36.388Z,97213
2018-09-02T15:42:52.404Z,97214
2018-09-02T15:44:08.516Z,97208
2018-09-02T15:45:24.436Z,97218
2018-09-02T15:46:40.524Z,97209
2018-09-02T15:47:56.578Z,97211
2018-09-02T15:49:12.588Z,97211
2018-09-02T15:50:28.680Z,97213
2018-09-02T15:51:44.649Z,97214
2018-09-02T15:53:00.625Z,97215
2018-09-02T15:54:16.597Z,97212
2018-09-02T15:55:32.584Z,97209
2018-09-02T15:56:48.663Z,97208
2018-09-02T15:58:04.691Z,97207
2018-09-02T15:59:21.121Z,97207
2018-09-02T16:00:38.441Z,97202
2018-09-02T16:01:54.864Z,97205
2018-09-02T16:03:10.861Z,97203
2018-09-02T16:06:08.638Z,97204
2018-09-02T16:07:24.662Z,97207
2018-09-02T16:10:21.767Z,97205
2018-09-02T16:11:37.733Z,97202
2018-09-02T16:12:53.943Z,97205
2018-09-02T16:14:10.015Z,97205
2018-09-02T16:15:26.120Z,97203
2018-09-02T16:16:42.172Z,97200
2018-09-02T16:17:58.194Z,97202
2018-09-02T16:19:14.258Z,97207
2018-09-02T16:20:30.274Z,97203
2018-09-02T16:21:46.328Z,97205
2018-09-02T16:23:02.554Z,97205
2018-09-02T16:24:18.472Z,97202
2018-09-02T16:25:34.444Z,97202
2018-09-02T16:26:50.576Z,97204
2018-09-02T16:28:06.652Z,97202
2018-09-02T16:29:22.885Z,97204
2018-09-02T16:30:38.837Z,97207
2018-09-02T16:31:54.828Z,97199
2018-09-02T16:33:10.826Z,97208
2018-09-02T16:34:26.816Z,97203
2018-09-02T16:35:42.907Z,97203
2018-09-02T16:36:58.835Z,97202
2018-09-02T16:38:14.839Z,97201
2018-09-02T16:39:30.801Z,97199
2018-09-02T16:40:46.887Z,97200
2018-09-02T16:42:02.941Z,97204
2018-09-02T16:43:19.012Z,97201
2018-09-02T16:44:35.136Z,97204
2018-09-02T16:45:51.144Z,97202
2018-09-02T16:47:07.183Z,97199
2018-09-02T16:48:23.363Z,97201
2018-09-02T16:49:39.393Z,97201
2018-09-02T16:50:55.504Z,97200
2018-09-02T16:52:11.545Z,97201
2018-09-02T16:53:27.529Z,97203
2018-09-02T16:54:43.597Z,97198
2018-09-02T16:56:00.540Z,97202
2018-09-02T16:57:16.654Z,97201
2018-09-02T16:58:32.730Z,97190
2018-09-02T16:59:48.664Z,97199
2018-09-02T17:01:04.665Z,97199
2018-09-02T17:02:20.810Z,97196
2018-09-02T17:03:36.873Z,97191
2018-09-02T17:04:52.906Z,97192